sensor_id;sensor_type;location;lat;lon;timestamp;temperature;humidity
21787;DHT22;11055;50.870;4.316;2023-03-23T00:00:07;13.30;99.90
21787;DHT22;11055;50.870;4.316;2023-03-23T00:02:34;13.30;99.90
21787;DHT22;11055;50.870;4.316;2023-03-23T00:05:07;13.20;99.90
21787;DHT22;11055;50.870;4.316;2023-03-23T00:07:34;13.20;99.90
21787;DHT22;11055;50.870;4.316;2023-03-23T00:10:02;13.30;99.90
21787;DHT22;11055;50.870;4.316;2023-03-23T00:12:29;13.30;99.90
21787;DHT22;11055;50.870;4.316;2023-03-23T00:15:05;13.30;99.90
21787;DHT22;11055;50.870;4.316;2023-03-23T00:17:32;13.30;99.90
21787;DHT22;11055;50.870;4.316;2023-03-23T00:20:02;13.30;99.90
21787;DHT22;11055;50.870;4.316;2023-03-23T00:22:30;13.30;99.90
21787;DHT22;11055;50.870;4.316;2023-03-23T00:24:56;13.40;99.90
21787;DHT22;11055;50.870;4.316;2023-03-23T00:27:22;13.50;99.90
21787;DHT22;11055;50.870;4.316;2023-03-23T00:29:51;13.50;99.90
21787;DHT22;11055;50.870;4.316;2023-03-23T00:32:22;13.30;99.90
21787;DHT22;11055;50.870;4.316;2023-03-23T00:34:54;13.30;99.90
21787;DHT22;11055;50.870;4.316;2023-03-23T00:37:20;13.30;99.90
21787;DHT22;11055;50.870;4.316;2023-03-23T00:39:46;13.30;99.90
21787;DHT22;11055;50.870;4.316;2023-03-23T00:42:13;13.30;99.90
21787;DHT22;11055;50.870;4.316;2023-03-23T00:44:40;13.30;99.90
21787;DHT22;11055;50.870;4.316;2023-03-23T00:47:06;13.30;99.90
21787;DHT22;11055;50.870;4.316;2023-03-23T00:49:34;13.20;99.90
21787;DHT22;11055;50.870;4.316;2023-03-23T00:52:00;13.10;99.90
21787;DHT22;11055;50.870;4.316;2023-03-23T00:54:26;13.10;99.90
21787;DHT22;11055;50.870;4.316;2023-03-23T00:56:52;13.10;99.90
21787;DHT22;11055;50.870;4.316;2023-03-23T00:59:18;13.10;99.90
21787;DHT22;11055;50.870;4.316;2023-03-23T01:01:45;13.10;99.90
21787;DHT22;11055;50.870;4.316;2023-03-23T01:04:11;13.10;99.90
21787;DHT22;11055;50.870;4.316;2023-03-23T01:06:39;13.20;99.90
21787;DHT22;11055;50.870;4.316;2023-03-23T01:09:07;13.20;99.90
21787;DHT22;11055;50.870;4.316;2023-03-23T01:11:33;13.20;99.90
21787;DHT22;11055;50.870;4.316;2023-03-23T01:14:00;13.20;99.90
21787;DHT22;11055;50.870;4.316;2023-03-23T01:16:26;13.20;99.90
21787;DHT22;11055;50.870;4.316;2023-03-23T01:18:52;13.30;99.90
21787;DHT22;11055;50.870;4.316;2023-03-23T01:21:19;13.40;99.90
21787;DHT22;11055;50.870;4.316;2023-03-23T01:23:46;13.40;99.90
21787;DHT22;11055;50.870;4.316;2023-03-23T01:26:17;13.30;99.90
21787;DHT22;11055;50.870;4.316;2023-03-23T01:28:44;13.30;99.90
21787;DHT22;11055;50.870;4.316;2023-03-23T01:31:12;13.30;99.90
21787;DHT22;11055;50.870;4.316;2023-03-23T01:33:39;13.40;99.90
21787;DHT22;11055;50.870;4.316;2023-03-23T01:36:07;13.40;99.90
21787;DHT22;11055;50.870;4.316;2023-03-23T01:38:34;13.40;99.90
21787;DHT22;11055;50.870;4.316;2023-03-23T01:41:01;13.40;99.90
21787;DHT22;11055;50.870;4.316;2023-03-23T01:43:28;13.30;99.90
21787;DHT22;11055;50.870;4.316;2023-03-23T01:45:54;13.20;99.90
21787;DHT22;11055;50.870;4.316;2023-03-23T01:48:36;13.30;99.90
21787;DHT22;11055;50.870;4.316;2023-03-23T01:51:17;13.20;99.90
21787;DHT22;11055;50.870;4.316;2023-03-23T01:53:53;13.20;99.90
21787;DHT22;11055;50.870;4.316;2023-03-23T01:56:22;13.20;99.90
21787;DHT22;11055;50.870;4.316;2023-03-23T01:58:51;13.20;99.90
21787;DHT22;11055;50.870;4.316;2023-03-23T02:01:18;13.20;99.90
21787;DHT22;11055;50.870;4.316;2023-03-23T02:03:45;13.20;99.90
21787;DHT22;11055;50.870;4.316;2023-03-23T02:06:12;13.20;99.90
21787;DHT22;11055;50.870;4.316;2023-03-23T02:08:38;13.20;99.90
21787;DHT22;11055;50.870;4.316;2023-03-23T02:11:33;13.20;99.90
21787;DHT22;11055;50.870;4.316;2023-03-23T02:13:59;13.20;99.90
21787;DHT22;11055;50.870;4.316;2023-03-23T02:20:10;13.30;99.90
21787;DHT22;11055;50.870;4.316;2023-03-23T02:22:50;13.20;99.90
21787;DHT22;11055;50.870;4.316;2023-03-23T02:34:00;13.00;99.90
21787;DHT22;11055;50.870;4.316;2023-03-23T02:36:38;13.00;99.90
21787;DHT22;11055;50.870;4.316;2023-03-23T02:39:09;13.00;99.90
21787;DHT22;11055;50.870;4.316;2023-03-23T02:41:54;13.00;99.90
21787;DHT22;11055;50.870;4.316;2023-03-23T02:44:22;13.00;99.90
21787;DHT22;11055;50.870;4.316;2023-03-23T02:46:49;13.00;99.90
21787;DHT22;11055;50.870;4.316;2023-03-23T02:49:16;12.90;99.90
21787;DHT22;11055;50.870;4.316;2023-03-23T02:51:44;12.90;99.90
21787;DHT22;11055;50.870;4.316;2023-03-23T02:54:12;12.90;99.90
21787;DHT22;11055;50.870;4.316;2023-03-23T02:56:39;13.00;99.90
21787;DHT22;11055;50.870;4.316;2023-03-23T02:59:06;12.90;99.90
21787;DHT22;11055;50.870;4.316;2023-03-23T03:04:07;12.90;99.90
21787;DHT22;11055;50.870;4.316;2023-03-23T03:15:36;12.90;99.90
21787;DHT22;11055;50.870;4.316;2023-03-23T03:20:40;12.80;99.90
21787;DHT22;11055;50.870;4.316;2023-03-23T03:23:08;12.80;99.90
21787;DHT22;11055;50.870;4.316;2023-03-23T03:25:39;12.90;99.90
21787;DHT22;11055;50.870;4.316;2023-03-23T03:28:06;12.80;99.90
21787;DHT22;11055;50.870;4.316;2023-03-23T03:30:33;12.90;99.90
21787;DHT22;11055;50.870;4.316;2023-03-23T03:33:01;12.90;99.90
21787;DHT22;11055;50.870;4.316;2023-03-23T03:35:29;12.90;99.90
21787;DHT22;11055;50.870;4.316;2023-03-23T03:37:56;12.90;99.90
21787;DHT22;11055;50.870;4.316;2023-03-23T03:40:23;12.90;99.90
21787;DHT22;11055;50.870;4.316;2023-03-23T03:42:50;12.90;99.90
21787;DHT22;11055;50.870;4.316;2023-03-23T03:45:19;12.90;99.90
21787;DHT22;11055;50.870;4.316;2023-03-23T03:47:44;12.90;99.90
21787;DHT22;11055;50.870;4.316;2023-03-23T03:50:10;12.90;99.90
21787;DHT22;11055;50.870;4.316;2023-03-23T03:52:37;12.90;99.90
21787;DHT22;11055;50.870;4.316;2023-03-23T03:55:05;12.80;99.90
21787;DHT22;11055;50.870;4.316;2023-03-23T03:57:33;12.90;99.90
21787;DHT22;11055;50.870;4.316;2023-03-23T03:59:59;12.90;99.90
21787;DHT22;11055;50.870;4.316;2023-03-23T04:02:24;12.90;99.90
21787;DHT22;11055;50.870;4.316;2023-03-23T04:04:50;12.90;99.90
21787;DHT22;11055;50.870;4.316;2023-03-23T04:07:18;13.00;99.90
21787;DHT22;11055;50.870;4.316;2023-03-23T04:09:45;12.90;99.90
21787;DHT22;11055;50.870;4.316;2023-03-23T04:12:15;12.90;99.90
21787;DHT22;11055;50.870;4.316;2023-03-23T04:14:41;12.80;99.90
21787;DHT22;11055;50.870;4.316;2023-03-23T04:17:07;12.80;99.90
21787;DHT22;11055;50.870;4.316;2023-03-23T04:19:35;12.80;99.90
21787;DHT22;11055;50.870;4.316;2023-03-23T04:22:03;12.80;99.90
21787;DHT22;11055;50.870;4.316;2023-03-23T04:24:28;12.70;99.90
21787;DHT22;11055;50.870;4.316;2023-03-23T04:26:56;12.70;99.90
21787;DHT22;11055;50.870;4.316;2023-03-23T04:29:22;12.70;99.90
21787;DHT22;11055;50.870;4.316;2023-03-23T04:31:47;12.70;99.90
21787;DHT22;11055;50.870;4.316;2023-03-23T04:34:16;12.70;99.90
21787;DHT22;11055;50.870;4.316;2023-03-23T04:36:42;12.70;99.90
21787;DHT22;11055;50.870;4.316;2023-03-23T04:39:08;12.70;99.90
21787;DHT22;11055;50.870;4.316;2023-03-23T04:41:39;12.70;99.90
21787;DHT22;11055;50.870;4.316;2023-03-23T04:44:06;12.70;99.90
21787;DHT22;11055;50.870;4.316;2023-03-23T04:46:33;12.80;99.90
21787;DHT22;11055;50.870;4.316;2023-03-23T04:48:59;12.70;99.90
21787;DHT22;11055;50.870;4.316;2023-03-23T04:51:28;12.70;99.90
21787;DHT22;11055;50.870;4.316;2023-03-23T04:53:54;12.60;99.90
21787;DHT22;11055;50.870;4.316;2023-03-23T04:56:20;12.50;99.90
21787;DHT22;11055;50.870;4.316;2023-03-23T04:58:46;12.50;99.90
21787;DHT22;11055;50.870;4.316;2023-03-23T05:01:13;12.50;99.90
21787;DHT22;11055;50.870;4.316;2023-03-23T05:03:43;12.50;99.90
21787;DHT22;11055;50.870;4.316;2023-03-23T05:06:09;12.50;99.90
21787;DHT22;11055;50.870;4.316;2023-03-23T05:08:35;12.50;99.90
21787;DHT22;11055;50.870;4.316;2023-03-23T05:11:04;12.50;99.90
21787;DHT22;11055;50.870;4.316;2023-03-23T05:13:31;12.60;99.90
21787;DHT22;11055;50.870;4.316;2023-03-23T05:15:57;12.70;99.90
21787;DHT22;11055;50.870;4.316;2023-03-23T05:18:23;12.60;99.90
21787;DHT22;11055;50.870;4.316;2023-03-23T05:20:49;12.60;99.90
21787;DHT22;11055;50.870;4.316;2023-03-23T05:23:18;12.60;99.90
21787;DHT22;11055;50.870;4.316;2023-03-23T05:25:55;12.60;99.90
21787;DHT22;11055;50.870;4.316;2023-03-23T05:28:22;12.60;99.90
21787;DHT22;11055;50.870;4.316;2023-03-23T05:30:48;12.50;99.90
21787;DHT22;11055;50.870;4.316;2023-03-23T05:33:14;12.60;99.90
21787;DHT22;11055;50.870;4.316;2023-03-23T05:35:40;12.60;99.90
21787;DHT22;11055;50.870;4.316;2023-03-23T05:38:06;12.60;99.90
21787;DHT22;11055;50.870;4.316;2023-03-23T05:40:31;12.60;99.90
21787;DHT22;11055;50.870;4.316;2023-03-23T05:42:57;12.70;99.90
21787;DHT22;11055;50.870;4.316;2023-03-23T05:45:25;12.70;99.90
21787;DHT22;11055;50.870;4.316;2023-03-23T05:47:51;12.60;99.90
21787;DHT22;11055;50.870;4.316;2023-03-23T05:50:18;12.60;99.90
21787;DHT22;11055;50.870;4.316;2023-03-23T05:52:44;12.60;99.90
21787;DHT22;11055;50.870;4.316;2023-03-23T05:55:10;12.60;99.90
21787;DHT22;11055;50.870;4.316;2023-03-23T05:57:36;12.70;99.90
21787;DHT22;11055;50.870;4.316;2023-03-23T06:00:03;12.60;99.90
21787;DHT22;11055;50.870;4.316;2023-03-23T06:02:47;12.60;99.90
21787;DHT22;11055;50.870;4.316;2023-03-23T06:05:15;12.70;99.90
21787;DHT22;11055;50.870;4.316;2023-03-23T06:07:42;12.80;99.90
21787;DHT22;11055;50.870;4.316;2023-03-23T06:10:08;12.70;99.90
21787;DHT22;11055;50.870;4.316;2023-03-23T06:12:35;12.70;99.90
21787;DHT22;11055;50.870;4.316;2023-03-23T06:15:01;12.80;99.90
21787;DHT22;11055;50.870;4.316;2023-03-23T06:17:26;12.80;99.90
21787;DHT22;11055;50.870;4.316;2023-03-23T06:19:53;12.70;99.90
21787;DHT22;11055;50.870;4.316;2023-03-23T06:22:18;12.70;99.90
21787;DHT22;11055;50.870;4.316;2023-03-23T06:24:44;12.70;99.90
21787;DHT22;11055;50.870;4.316;2023-03-23T06:27:10;12.80;99.90
21787;DHT22;11055;50.870;4.316;2023-03-23T06:29:36;12.70;99.90
21787;DHT22;11055;50.870;4.316;2023-03-23T06:32:03;12.80;99.90
21787;DHT22;11055;50.870;4.316;2023-03-23T06:34:30;12.80;99.90
21787;DHT22;11055;50.870;4.316;2023-03-23T06:36:56;12.70;99.90
21787;DHT22;11055;50.870;4.316;2023-03-23T06:39:22;12.80;99.90
21787;DHT22;11055;50.870;4.316;2023-03-23T06:41:49;12.80;99.90
21787;DHT22;11055;50.870;4.316;2023-03-23T06:44:15;12.80;99.90
21787;DHT22;11055;50.870;4.316;2023-03-23T06:46:41;12.80;99.90
21787;DHT22;11055;50.870;4.316;2023-03-23T06:49:08;12.80;99.90
21787;DHT22;11055;50.870;4.316;2023-03-23T06:51:34;12.80;99.90
21787;DHT22;11055;50.870;4.316;2023-03-23T06:54:00;12.70;99.90
21787;DHT22;11055;50.870;4.316;2023-03-23T06:56:26;12.50;99.90
21787;DHT22;11055;50.870;4.316;2023-03-23T06:58:52;11.70;99.90
21787;DHT22;11055;50.870;4.316;2023-03-23T07:01:18;11.30;99.90
21787;DHT22;11055;50.870;4.316;2023-03-23T07:03:44;11.00;99.90
21787;DHT22;11055;50.870;4.316;2023-03-23T07:06:10;10.80;99.90
21787;DHT22;11055;50.870;4.316;2023-03-23T07:08:36;10.50;99.90
21787;DHT22;11055;50.870;4.316;2023-03-23T07:11:02;10.40;99.90
21787;DHT22;11055;50.870;4.316;2023-03-23T07:13:28;10.30;99.90
21787;DHT22;11055;50.870;4.316;2023-03-23T07:15:54;10.20;99.90
21787;DHT22;11055;50.870;4.316;2023-03-23T07:18:20;10.20;99.90
21787;DHT22;11055;50.870;4.316;2023-03-23T07:20:50;10.10;99.90
21787;DHT22;11055;50.870;4.316;2023-03-23T07:23:16;10.10;99.90
21787;DHT22;11055;50.870;4.316;2023-03-23T07:25:43;10.20;99.90
21787;DHT22;11055;50.870;4.316;2023-03-23T07:28:09;10.20;99.90
21787;DHT22;11055;50.870;4.316;2023-03-23T07:30:34;10.20;99.90
21787;DHT22;11055;50.870;4.316;2023-03-23T07:33:06;10.20;99.90
21787;DHT22;11055;50.870;4.316;2023-03-23T07:35:33;10.30;99.90
21787;DHT22;11055;50.870;4.316;2023-03-23T07:37:59;10.40;99.90
21787;DHT22;11055;50.870;4.316;2023-03-23T07:40:25;10.50;99.90
21787;DHT22;11055;50.870;4.316;2023-03-23T07:42:55;10.70;99.90
21787;DHT22;11055;50.870;4.316;2023-03-23T07:45:21;10.80;99.90
21787;DHT22;11055;50.870;4.316;2023-03-23T07:47:47;11.00;99.90
21787;DHT22;11055;50.870;4.316;2023-03-23T07:50:13;11.10;99.90
21787;DHT22;11055;50.870;4.316;2023-03-23T07:52:39;11.20;99.90
21787;DHT22;11055;50.870;4.316;2023-03-23T07:55:08;11.40;99.90
21787;DHT22;11055;50.870;4.316;2023-03-23T07:57:34;11.50;99.90
21787;DHT22;11055;50.870;4.316;2023-03-23T08:00:00;11.60;99.90
21787;DHT22;11055;50.870;4.316;2023-03-23T08:02:26;11.70;99.90
21787;DHT22;11055;50.870;4.316;2023-03-23T08:04:52;11.80;99.90
21787;DHT22;11055;50.870;4.316;2023-03-23T08:07:19;11.90;99.90
21787;DHT22;11055;50.870;4.316;2023-03-23T08:09:46;12.10;99.90
21787;DHT22;11055;50.870;4.316;2023-03-23T08:12:13;12.00;99.90
21787;DHT22;11055;50.870;4.316;2023-03-23T08:14:39;11.80;99.90
21787;DHT22;11055;50.870;4.316;2023-03-23T08:17:07;11.80;99.90
21787;DHT22;11055;50.870;4.316;2023-03-23T08:19:34;11.80;99.90
21787;DHT22;11055;50.870;4.316;2023-03-23T08:22:05;11.80;99.90
21787;DHT22;11055;50.870;4.316;2023-03-23T08:24:32;11.80;99.90
21787;DHT22;11055;50.870;4.316;2023-03-23T08:26:59;11.70;99.90
21787;DHT22;11055;50.870;4.316;2023-03-23T08:29:25;11.60;99.90
21787;DHT22;11055;50.870;4.316;2023-03-23T08:31:51;11.40;99.90
21787;DHT22;11055;50.870;4.316;2023-03-23T08:34:17;11.20;99.90
21787;DHT22;11055;50.870;4.316;2023-03-23T08:36:43;11.30;99.90
21787;DHT22;11055;50.870;4.316;2023-03-23T08:39:10;11.40;99.90
21787;DHT22;11055;50.870;4.316;2023-03-23T08:41:35;11.50;99.90
21787;DHT22;11055;50.870;4.316;2023-03-23T08:44:01;11.30;99.90
21787;DHT22;11055;50.870;4.316;2023-03-23T08:46:27;11.20;99.90
21787;DHT22;11055;50.870;4.316;2023-03-23T08:48:54;11.20;99.90
21787;DHT22;11055;50.870;4.316;2023-03-23T08:51:20;11.30;99.90
21787;DHT22;11055;50.870;4.316;2023-03-23T08:53:45;11.40;99.90
21787;DHT22;11055;50.870;4.316;2023-03-23T08:56:11;11.50;99.90
21787;DHT22;11055;50.870;4.316;2023-03-23T08:58:39;11.70;99.90
21787;DHT22;11055;50.870;4.316;2023-03-23T09:01:06;11.80;99.90
21787;DHT22;11055;50.870;4.316;2023-03-23T09:03:33;12.00;99.90
21787;DHT22;11055;50.870;4.316;2023-03-23T09:06:01;12.00;99.90
21787;DHT22;11055;50.870;4.316;2023-03-23T09:08:28;12.10;99.90
21787;DHT22;11055;50.870;4.316;2023-03-23T09:10:58;12.20;99.90
21787;DHT22;11055;50.870;4.316;2023-03-23T09:13:24;12.20;99.90
21787;DHT22;11055;50.870;4.316;2023-03-23T09:15:50;12.40;99.90
21787;DHT22;11055;50.870;4.316;2023-03-23T09:18:16;12.40;99.90
21787;DHT22;11055;50.870;4.316;2023-03-23T09:20:42;12.50;99.90
21787;DHT22;11055;50.870;4.316;2023-03-23T09:23:09;12.70;99.90
21787;DHT22;11055;50.870;4.316;2023-03-23T09:25:35;13.00;99.90
21787;DHT22;11055;50.870;4.316;2023-03-23T09:28:00;12.90;99.90
21787;DHT22;11055;50.870;4.316;2023-03-23T09:30:32;12.90;99.90
21787;DHT22;11055;50.870;4.316;2023-03-23T09:33:00;12.80;99.90
21787;DHT22;11055;50.870;4.316;2023-03-23T09:35:27;12.70;99.90
21787;DHT22;11055;50.870;4.316;2023-03-23T09:37:53;12.70;99.90
21787;DHT22;11055;50.870;4.316;2023-03-23T09:40:26;12.80;99.90
21787;DHT22;11055;50.870;4.316;2023-03-23T09:43:30;12.80;99.90
21787;DHT22;11055;50.870;4.316;2023-03-23T09:46:10;12.60;99.90
21787;DHT22;11055;50.870;4.316;2023-03-23T09:48:48;12.70;99.90
21787;DHT22;11055;50.870;4.316;2023-03-23T09:54:27;12.90;99.90
21787;DHT22;11055;50.870;4.316;2023-03-23T09:56:55;13.30;99.90
21787;DHT22;11055;50.870;4.316;2023-03-23T09:59:34;13.70;99.90
21787;DHT22;11055;50.870;4.316;2023-03-23T10:02:21;14.00;99.90
21787;DHT22;11055;50.870;4.316;2023-03-23T10:05:12;14.00;99.90
21787;DHT22;11055;50.870;4.316;2023-03-23T10:07:41;13.90;99.90
21787;DHT22;11055;50.870;4.316;2023-03-23T10:10:12;13.90;99.90
21787;DHT22;11055;50.870;4.316;2023-03-23T10:15:20;14.00;99.90
21787;DHT22;11055;50.870;4.316;2023-03-23T10:20:48;14.40;99.90
21787;DHT22;11055;50.870;4.316;2023-03-23T10:25:56;14.20;99.90
21787;DHT22;11055;50.870;4.316;2023-03-23T10:28:39;14.10;99.90
21787;DHT22;11055;50.870;4.316;2023-03-23T10:31:11;14.10;99.90
21787;DHT22;11055;50.870;4.316;2023-03-23T10:33:47;14.20;99.90
21787;DHT22;11055;50.870;4.316;2023-03-23T10:39:11;14.10;99.90
21787;DHT22;11055;50.870;4.316;2023-03-23T10:41:38;13.80;99.90
21787;DHT22;11055;50.870;4.316;2023-03-23T10:44:16;13.80;99.90
21787;DHT22;11055;50.870;4.316;2023-03-23T10:47:04;13.90;99.90
21787;DHT22;11055;50.870;4.316;2023-03-23T10:52:32;13.90;99.90
21787;DHT22;11055;50.870;4.316;2023-03-23T10:55:08;14.30;99.90
21787;DHT22;11055;50.870;4.316;2023-03-23T10:57:37;14.40;99.90
21787;DHT22;11055;50.870;4.316;2023-03-23T11:00:24;14.50;99.90
21787;DHT22;11055;50.870;4.316;2023-03-23T11:03:06;14.50;99.90
21787;DHT22;11055;50.870;4.316;2023-03-23T11:05:59;14.50;99.90
21787;DHT22;11055;50.870;4.316;2023-03-23T11:08:28;14.60;99.90
21787;DHT22;11055;50.870;4.316;2023-03-23T11:11:19;14.90;99.90
21787;DHT22;11055;50.870;4.316;2023-03-23T11:13:49;15.30;99.90
21787;DHT22;11055;50.870;4.316;2023-03-23T11:16:28;15.90;99.90
21787;DHT22;11055;50.870;4.316;2023-03-23T11:18:54;16.90;99.90
21787;DHT22;11055;50.870;4.316;2023-03-23T11:21:22;18.40;99.90
21787;DHT22;11055;50.870;4.316;2023-03-23T11:23:53;17.80;99.90
21787;DHT22;11055;50.870;4.316;2023-03-23T11:26:30;17.50;99.90
21787;DHT22;11055;50.870;4.316;2023-03-23T11:31:52;16.30;99.90
21787;DHT22;11055;50.870;4.316;2023-03-23T11:37:02;16.70;99.90
21787;DHT22;11055;50.870;4.316;2023-03-23T11:39:29;16.90;99.90
21787;DHT22;11055;50.870;4.316;2023-03-23T11:41:58;17.30;99.90
21787;DHT22;11055;50.870;4.316;2023-03-23T11:44:34;19.30;99.90
21787;DHT22;11055;50.870;4.316;2023-03-23T11:49:50;18.80;99.90
21787;DHT22;11055;50.870;4.316;2023-03-23T11:52:23;20.50;99.90
21787;DHT22;11055;50.870;4.316;2023-03-23T11:55:08;22.60;99.90
21787;DHT22;11055;50.870;4.316;2023-03-23T11:57:35;20.70;99.90
21787;DHT22;11055;50.870;4.316;2023-03-23T12:00:02;19.00;99.90
21787;DHT22;11055;50.870;4.316;2023-03-23T12:10:54;18.20;99.90
21787;DHT22;11055;50.870;4.316;2023-03-23T12:19:34;19.00;99.90
21787;DHT22;11055;50.870;4.316;2023-03-23T12:27:48;21.70;99.90
21787;DHT22;11055;50.870;4.316;2023-03-23T12:36:03;25.60;99.40
21787;DHT22;11055;50.870;4.316;2023-03-23T12:44:02;29.30;83.20
21787;DHT22;11055;50.870;4.316;2023-03-23T12:46:51;26.60;79.90
21787;DHT22;11055;50.870;4.316;2023-03-23T12:49:28;27.90;80.40
21787;DHT22;11055;50.870;4.316;2023-03-23T12:52:13;29.20;76.20
21787;DHT22;11055;50.870;4.316;2023-03-23T12:55:19;26.30;80.00
21787;DHT22;11055;50.870;4.316;2023-03-23T12:58:01;22.20;95.50
21787;DHT22;11055;50.870;4.316;2023-03-23T13:00:33;20.30;99.90
21787;DHT22;11055;50.870;4.316;2023-03-23T13:03:34;19.30;99.90
21787;DHT22;11055;50.870;4.316;2023-03-23T13:05:53;18.70;99.90
21787;DHT22;11055;50.870;4.316;2023-03-23T13:08:31;18.30;99.90
21787;DHT22;11055;50.870;4.316;2023-03-23T13:11:03;17.80;99.90
21787;DHT22;11055;50.870;4.316;2023-03-23T13:13:51;17.40;99.90
21787;DHT22;11055;50.870;4.316;2023-03-23T13:22:23;18.40;99.90
21787;DHT22;11055;50.870;4.316;2023-03-23T13:24:56;21.90;99.90
21787;DHT22;11055;50.870;4.316;2023-03-23T13:27:24;21.10;99.90
21787;DHT22;11055;50.870;4.316;2023-03-23T13:29:56;19.90;99.90
21787;DHT22;11055;50.870;4.316;2023-03-23T13:32:33;19.30;99.90
21787;DHT22;11055;50.870;4.316;2023-03-23T13:35:05;18.70;99.90
21787;DHT22;11055;50.870;4.316;2023-03-23T13:37:32;22.10;99.90
21787;DHT22;11055;50.870;4.316;2023-03-23T13:40:16;24.50;94.00
21787;DHT22;11055;50.870;4.316;2023-03-23T13:42:50;22.80;96.90
21787;DHT22;11055;50.870;4.316;2023-03-23T13:51:03;18.60;99.90
21787;DHT22;11055;50.870;4.316;2023-03-23T13:53:47;18.20;99.90
21787;DHT22;11055;50.870;4.316;2023-03-23T13:56:36;17.50;99.90
21787;DHT22;11055;50.870;4.316;2023-03-23T13:59:15;17.30;99.90
21787;DHT22;11055;50.870;4.316;2023-03-23T14:01:41;17.30;99.90
21787;DHT22;11055;50.870;4.316;2023-03-23T14:04:13;17.20;99.90
21787;DHT22;11055;50.870;4.316;2023-03-23T14:06:39;16.90;99.90
21787;DHT22;11055;50.870;4.316;2023-03-23T14:09:12;16.50;99.90
21787;DHT22;11055;50.870;4.316;2023-03-23T14:12:05;16.50;99.90
21787;DHT22;11055;50.870;4.316;2023-03-23T14:14:44;16.90;99.90
21787;DHT22;11055;50.870;4.316;2023-03-23T14:17:30;17.50;99.90
21787;DHT22;11055;50.870;4.316;2023-03-23T14:19:58;17.70;99.90
21787;DHT22;11055;50.870;4.316;2023-03-23T14:22:32;17.30;99.90
21787;DHT22;11055;50.870;4.316;2023-03-23T14:25:16;17.30;99.90
21787;DHT22;11055;50.870;4.316;2023-03-23T14:27:42;17.20;99.90
21787;DHT22;11055;50.870;4.316;2023-03-23T14:30:14;17.20;99.90
21787;DHT22;11055;50.870;4.316;2023-03-23T14:32:40;17.20;99.90
21787;DHT22;11055;50.870;4.316;2023-03-23T14:35:27;17.40;99.90
21787;DHT22;11055;50.870;4.316;2023-03-23T14:37:57;17.50;99.90
21787;DHT22;11055;50.870;4.316;2023-03-23T14:40:26;17.40;99.90
21787;DHT22;11055;50.870;4.316;2023-03-23T14:42:53;17.10;99.90
21787;DHT22;11055;50.870;4.316;2023-03-23T14:45:21;16.70;99.90
21787;DHT22;11055;50.870;4.316;2023-03-23T14:47:53;16.40;99.90
21787;DHT22;11055;50.870;4.316;2023-03-23T14:50:28;16.30;99.90
21787;DHT22;11055;50.870;4.316;2023-03-23T14:53:09;16.30;99.90
21787;DHT22;11055;50.870;4.316;2023-03-23T14:55:36;16.30;99.90
21787;DHT22;11055;50.870;4.316;2023-03-23T14:58:07;16.30;99.90
21787;DHT22;11055;50.870;4.316;2023-03-23T15:00:38;16.50;99.90
21787;DHT22;11055;50.870;4.316;2023-03-23T15:03:07;16.80;99.90
21787;DHT22;11055;50.870;4.316;2023-03-23T15:05:38;16.90;99.90
21787;DHT22;11055;50.870;4.316;2023-03-23T15:08:11;17.00;99.90
21787;DHT22;11055;50.870;4.316;2023-03-23T15:10:39;16.80;99.90
21787;DHT22;11055;50.870;4.316;2023-03-23T15:13:05;16.60;99.90
21787;DHT22;11055;50.870;4.316;2023-03-23T15:15:33;16.80;99.90
21787;DHT22;11055;50.870;4.316;2023-03-23T15:18:00;16.90;99.90
21787;DHT22;11055;50.870;4.316;2023-03-23T15:20:47;16.80;99.90
21787;DHT22;11055;50.870;4.316;2023-03-23T15:23:21;17.00;99.90
21787;DHT22;11055;50.870;4.316;2023-03-23T15:25:52;17.10;99.90
21787;DHT22;11055;50.870;4.316;2023-03-23T15:28:32;17.30;99.90
21787;DHT22;11055;50.870;4.316;2023-03-23T15:31:02;17.10;99.90
21787;DHT22;11055;50.870;4.316;2023-03-23T15:33:37;16.80;99.90
21787;DHT22;11055;50.870;4.316;2023-03-23T15:36:09;16.70;99.90
21787;DHT22;11055;50.870;4.316;2023-03-23T15:38:43;16.70;99.90
21787;DHT22;11055;50.870;4.316;2023-03-23T15:41:28;16.60;99.90
21787;DHT22;11055;50.870;4.316;2023-03-23T15:43:55;16.50;99.90
21787;DHT22;11055;50.870;4.316;2023-03-23T15:46:28;16.50;99.90
21787;DHT22;11055;50.870;4.316;2023-03-23T15:49:08;16.30;99.90
21787;DHT22;11055;50.870;4.316;2023-03-23T15:51:35;16.10;99.90
21787;DHT22;11055;50.870;4.316;2023-03-23T15:54:03;16.00;99.90
21787;DHT22;11055;50.870;4.316;2023-03-23T15:56:28;16.00;99.90
21787;DHT22;11055;50.870;4.316;2023-03-23T15:58:57;16.10;99.90
21787;DHT22;11055;50.870;4.316;2023-03-23T16:01:27;16.30;99.90
21787;DHT22;11055;50.870;4.316;2023-03-23T16:06:29;16.30;99.90
21787;DHT22;11055;50.870;4.316;2023-03-23T16:08:56;16.10;99.90
21787;DHT22;11055;50.870;4.316;2023-03-23T16:11:23;16.00;99.90
21787;DHT22;11055;50.870;4.316;2023-03-23T16:13:49;15.90;99.90
21787;DHT22;11055;50.870;4.316;2023-03-23T16:16:18;15.80;99.90
21787;DHT22;11055;50.870;4.316;2023-03-23T16:18:45;15.90;99.90
21787;DHT22;11055;50.870;4.316;2023-03-23T16:21:11;16.10;99.90
21787;DHT22;11055;50.870;4.316;2023-03-23T16:23:36;16.20;99.90
21787;DHT22;11055;50.870;4.316;2023-03-23T16:26:03;16.20;99.90
21787;DHT22;11055;50.870;4.316;2023-03-23T16:28:28;16.40;99.90
21787;DHT22;11055;50.870;4.316;2023-03-23T16:30:54;16.40;99.90
21787;DHT22;11055;50.870;4.316;2023-03-23T16:33:20;16.30;99.90
21787;DHT22;11055;50.870;4.316;2023-03-23T16:35:46;16.30;99.90
21787;DHT22;11055;50.870;4.316;2023-03-23T16:38:14;16.30;99.90
21787;DHT22;11055;50.870;4.316;2023-03-23T16:40:41;16.20;99.90
21787;DHT22;11055;50.870;4.316;2023-03-23T16:43:07;16.20;99.90
21787;DHT22;11055;50.870;4.316;2023-03-23T16:45:33;16.20;99.90
21787;DHT22;11055;50.870;4.316;2023-03-23T16:47:59;16.20;99.90
21787;DHT22;11055;50.870;4.316;2023-03-23T16:50:27;16.20;99.90
21787;DHT22;11055;50.870;4.316;2023-03-23T16:52:54;16.20;99.90
21787;DHT22;11055;50.870;4.316;2023-03-23T16:55:19;16.20;99.90
21787;DHT22;11055;50.870;4.316;2023-03-23T16:57:46;16.00;99.90
21787;DHT22;11055;50.870;4.316;2023-03-23T17:00:16;15.90;99.90
21787;DHT22;11055;50.870;4.316;2023-03-23T17:02:48;15.90;99.90
21787;DHT22;11055;50.870;4.316;2023-03-23T17:05:14;15.90;99.90
21787;DHT22;11055;50.870;4.316;2023-03-23T17:07:41;15.70;99.90
21787;DHT22;11055;50.870;4.316;2023-03-23T17:10:08;15.70;99.90
21787;DHT22;11055;50.870;4.316;2023-03-23T17:12:34;15.70;99.90
21787;DHT22;11055;50.870;4.316;2023-03-23T17:15:01;15.60;99.90
21787;DHT22;11055;50.870;4.316;2023-03-23T17:17:27;15.60;99.90
21787;DHT22;11055;50.870;4.316;2023-03-23T17:19:53;15.70;99.90
21787;DHT22;11055;50.870;4.316;2023-03-23T17:22:19;15.70;99.90